This is the latest recevied weather packets stored in our database for station/object NC4J. If no packets are shown the sender has not sent any weather packets the latest 10 day(s).
| Time | Temp. | Humidity | Pressure | Rain* | Wind** | Luminosity | Snow |
|---|---|---|---|---|---|---|---|
| 1777928719 | 22.78° C | 28% | 1014.8 hPa | 0 mm | - | 91 W/m² | - |
| 1777928416 | 22.78° C | 27% | 1014.8 hPa | 0 mm | - | 87 W/m² | - |
| 1777928114 | 23.89° C | 26% | 1014.9 hPa | 0 mm | - | 89 W/m² | - |
| 1777927812 | 23.89° C | 28% | 1015 hPa | 0 mm | - | 91 W/m² | - |
| 1777927510 | 23.33° C | 30% | 1015 hPa | 0 mm | - | 94 W/m² | - |
| 1777927209 | 23.33° C | 29% | 1015 hPa | 0 mm | - | 99 W/m² | - |
| 1777926906 | 23.33° C | 28% | 1015.1 hPa | 0 mm | - | 101 W/m² | - |
| 1777926602 | 23.33° C | 30% | 1015 hPa | 0 mm | - | 99 W/m² | - |
| 1777926298 | 23.33° C | 28% | 1015 hPa | 0 mm | - | 108 W/m² | - |
| 1777925995 | 23.89° C | 29% | 1015.1 hPa | 0 mm | - | 147 W/m² | - |
| 1777925693 | 23.33° C | 28% | 1015.2 hPa | 0 mm | - | 290 W/m² | - |
| 1777925390 | 22.78° C | 31% | 1015.2 hPa | 0 mm | - | 232 W/m² | - |
| 1777925087 | 22.22° C | 32% | 1015.3 hPa | 0 mm | - | 182 W/m² | - |
| 1777924783 | 21.67° C | 29% | 1015.5 hPa | 0 mm | - | 386 W/m² | - |
| 1777924479 | 21.67° C | 29% | 1015.3 hPa | 0 mm | - | 165 W/m² | - |
| 1777924176 | 21.67° C | 34% | 1015.4 hPa | 0 mm | - | 143 W/m² | - |
| 1777923872 | 21.67° C | 30% | 1015.3 hPa | 0 mm | - | 91 W/m² | - |
| 1777923568 | 21.67° C | 29% | 1015.5 hPa | 0 mm | - | 88 W/m² | - |
| 1777923265 | 21.67° C | 28% | 1015.5 hPa | 0 mm | - | 85 W/m² | - |
| 1777922964 | 21.67° C | 30% | 1015.5 hPa | 0 mm | - | 113 W/m² | - |
| 1777922661 | 21.67° C | 32% | 1015.8 hPa | 0 mm | - | 91 W/m² | - |
| 1777922360 | 21.67° C | 32% | 1016 hPa | 0 mm | - | 118 W/m² | - |
| 1777922058 | 21.11° C | 31% | 1016 hPa | 0 mm | - | 103 W/m² | - |
| 1777921753 | 21.11° C | 31% | 1016.1 hPa | 0 mm | - | 95 W/m² | - |
| 1777921448 | 21.11° C | 33% | 1016.2 hPa | 0 mm | - | 71 W/m² | - |
* Rain latest hour (hover to see other rain measurements)
** Current wind speed in m/s (hover to see current wind gust speed)